VYA605 LQSA-LGHI
Flight info
| Callsign | VYA605 |
|---|---|
| Flight time | 1h 24m |
| Altitude | 41000 |
| Route | KUTAK DCT MEDUX UM867 KOGAT DCT SKJ DCT DISOR UL608 FSK UG18 MES |
| Aircraft | CL60/M-SADE3FGHIJ3J4J7P2RWXY/HB1D1 |
Departure
| Time | 2026-04-27 17:51 |
|---|---|
| Airport | Sarajevo International Airport (LQSA) |
Arrival
| Time | 2026-04-27 19:16 |
|---|---|
| Airport | Chios Island National Airport (LGHI) |
| Time | Latitude | Longitude | Altitude | Speed | Heading |
|---|---|---|---|---|---|
| 2026-04-27 17:26 | 43.82498 | 18.33744 | 1719 ft | 0 kts | 28° |
| 2026-04-27 17:48 | 43.82499 | 18.33745 | 1718 ft | 3 kts | 43° |
| 2026-04-27 17:48 | 43.82455 | 18.33770 | 1719 ft | 10 kts | 181° |
| 2026-04-27 17:48 | 43.82387 | 18.33818 | 1720 ft | 12 kts | 121° |
| 2026-04-27 17:49 | 43.82330 | 18.33970 | 1725 ft | 22 kts | 117° |
| 2026-04-27 17:49 | 43.82251 | 18.34180 | 1732 ft | 24 kts | 117° |
| 2026-04-27 17:49 | 43.82174 | 18.34386 | 1737 ft | 24 kts | 117° |
| 2026-04-27 17:49 | 43.82097 | 18.34586 | 1742 ft | 21 kts | 132° |
| 2026-04-27 17:50 | 43.81961 | 18.34603 | 1743 ft | 17 kts | 211° |
| 2026-04-27 17:50 | 43.82130 | 18.34015 | 1728 ft | 77 kts | 297° |
| 2026-04-27 17:50 | 43.82447 | 18.33172 | 1710 ft | 115 kts | 298° |
| 2026-04-27 17:51 | 43.82859 | 18.32063 | 1685 ft | 142 kts | 298° |
| 2026-04-27 17:51 | 43.83308 | 18.30844 | 1917 ft | 140 kts | 299° |
| 2026-04-27 17:51 | 43.83799 | 18.29491 | 2290 ft | 177 kts | 299° |
| 2026-04-27 17:51 | 43.84564 | 18.28265 | 3345 ft | 169 kts | 333° |
| 2026-04-27 17:52 | 43.85647 | 18.27949 | 4330 ft | 168 kts | 7° |
| 2026-04-27 17:52 | 43.86749 | 18.28695 | 4873 ft | 199 kts | 48° |
| 2026-04-27 17:52 | 43.87520 | 18.30407 | 5670 ft | 220 kts | 60° |
| 2026-04-27 17:52 | 43.88275 | 18.32337 | 6559 ft | 237 kts | 60° |
| 2026-04-27 17:53 | 43.89054 | 18.34304 | 7729 ft | 239 kts | 60° |
| 2026-04-27 17:53 | 43.89870 | 18.36314 | 8881 ft | 243 kts | 59° |
| 2026-04-27 17:53 | 43.90701 | 18.38349 | 9989 ft | 249 kts | 60° |
| 2026-04-27 17:53 | 43.91522 | 18.40466 | 11134 ft | 253 kts | 67° |
| 2026-04-27 17:54 | 43.91873 | 18.42829 | 12192 ft | 257 kts | 91° |
| 2026-04-27 17:54 | 43.91502 | 18.45231 | 13167 ft | 264 kts | 115° |
| 2026-04-27 17:54 | 43.90303 | 18.47352 | 13600 ft | 292 kts | 146° |
| 2026-04-27 17:54 | 43.88479 | 18.48767 | 14271 ft | 310 kts | 153° |
| 2026-04-27 17:55 | 43.86543 | 18.50174 | 15142 ft | 319 kts | 153° |
| 2026-04-27 17:55 | 43.84579 | 18.51616 | 16134 ft | 325 kts | 153° |
| 2026-04-27 17:55 | 43.82573 | 18.53091 | 17117 ft | 329 kts | 153° |
| 2026-04-27 17:55 | 43.80512 | 18.54607 | 18022 ft | 335 kts | 153° |
| 2026-04-27 17:56 | 43.78443 | 18.56130 | 18828 ft | 341 kts | 152° |
| 2026-04-27 17:56 | 43.76325 | 18.57688 | 19611 ft | 348 kts | 152° |
| 2026-04-27 17:56 | 43.74157 | 18.59284 | 20391 ft | 354 kts | 152° |
| 2026-04-27 17:56 | 43.71974 | 18.60891 | 21167 ft | 359 kts | 152° |
| 2026-04-27 17:57 | 43.69759 | 18.62522 | 21922 ft | 364 kts | 152° |
| 2026-04-27 17:57 | 43.67488 | 18.64193 | 22594 ft | 371 kts | 152° |
| 2026-04-27 17:57 | 43.65251 | 18.65838 | 23261 ft | 376 kts | 153° |
| 2026-04-27 17:57 | 43.62970 | 18.67515 | 23936 ft | 382 kts | 153° |
| 2026-04-27 17:58 | 43.60627 | 18.69237 | 24660 ft | 386 kts | 152° |
| 2026-04-27 17:58 | 43.58241 | 18.70989 | 25371 ft | 389 kts | 152° |
| 2026-04-27 17:58 | 43.55844 | 18.72748 | 26034 ft | 393 kts | 152° |
| 2026-04-27 17:58 | 43.53399 | 18.74542 | 26675 ft | 397 kts | 152° |
| 2026-04-27 17:59 | 43.50958 | 18.76330 | 27282 ft | 400 kts | 151° |
| 2026-04-27 17:59 | 43.48511 | 18.78237 | 27830 ft | 404 kts | 143° |
| 2026-04-27 17:59 | 43.46463 | 18.80863 | 28391 ft | 402 kts | 127° |
| 2026-04-27 17:59 | 43.44693 | 18.83912 | 28876 ft | 407 kts | 126° |
| 2026-04-27 18:00 | 43.42930 | 18.86954 | 29381 ft | 411 kts | 126° |
| 2026-04-27 18:00 | 43.41145 | 18.90024 | 29921 ft | 413 kts | 125° |
| 2026-04-27 18:00 | 43.39341 | 18.93123 | 30403 ft | 416 kts | 126° |
| 2026-04-27 18:00 | 43.37511 | 18.96267 | 30879 ft | 419 kts | 126° |
| 2026-04-27 18:01 | 43.35669 | 18.99427 | 31315 ft | 422 kts | 126° |
| 2026-04-27 18:01 | 43.33818 | 19.02598 | 31728 ft | 425 kts | 126° |
| 2026-04-27 18:01 | 43.31947 | 19.05800 | 32134 ft | 428 kts | 126° |
| 2026-04-27 18:01 | 43.30129 | 19.08911 | 32521 ft | 430 kts | 126° |
| 2026-04-27 18:02 | 43.28236 | 19.12143 | 32889 ft | 432 kts | 126° |
| 2026-04-27 18:02 | 43.26394 | 19.15287 | 33222 ft | 435 kts | 126° |
| 2026-04-27 18:02 | 43.24475 | 19.18558 | 33573 ft | 437 kts | 126° |
| 2026-04-27 18:02 | 43.22577 | 19.21790 | 33848 ft | 440 kts | 127° |
| 2026-04-27 18:03 | 43.20642 | 19.25081 | 34180 ft | 442 kts | 127° |
| 2026-04-27 18:03 | 43.18704 | 19.28373 | 34593 ft | 441 kts | 127° |
| 2026-04-27 18:03 | 43.16769 | 19.31656 | 34961 ft | 440 kts | 127° |
| 2026-04-27 18:03 | 43.14834 | 19.34936 | 35322 ft | 438 kts | 127° |
| 2026-04-27 18:04 | 43.12933 | 19.38155 | 35652 ft | 437 kts | 127° |
| 2026-04-27 18:04 | 43.11019 | 19.41393 | 35951 ft | 437 kts | 127° |
| 2026-04-27 18:04 | 43.09094 | 19.44647 | 36223 ft | 437 kts | 127° |
| 2026-04-27 18:04 | 43.07182 | 19.47874 | 36490 ft | 436 kts | 128° |
| 2026-04-27 18:05 | 43.05267 | 19.51102 | 36842 ft | 436 kts | 128° |
| 2026-04-27 18:05 | 43.03350 | 19.54331 | 37194 ft | 435 kts | 128° |
| 2026-04-27 18:05 | 43.01436 | 19.57552 | 37513 ft | 435 kts | 128° |
| 2026-04-27 18:05 | 42.99522 | 19.60768 | 37815 ft | 435 kts | 128° |
| 2026-04-27 18:06 | 42.97613 | 19.63974 | 38083 ft | 435 kts | 128° |
| 2026-04-27 18:06 | 42.95810 | 19.66997 | 38315 ft | 435 kts | 129° |
| 2026-04-27 18:06 | 42.93917 | 19.70169 | 38534 ft | 435 kts | 128° |
| 2026-04-27 18:06 | 42.92030 | 19.73327 | 38716 ft | 435 kts | 128° |
| 2026-04-27 18:07 | 42.90118 | 19.76523 | 38916 ft | 436 kts | 129° |
| 2026-04-27 18:07 | 42.88398 | 19.79396 | 39094 ft | 435 kts | 128° |
| 2026-04-27 18:07 | 42.84561 | 19.85795 | 39156 ft | 443 kts | 129° |
| 2026-04-27 18:08 | 42.80597 | 19.92390 | 39164 ft | 452 kts | 129° |
| 2026-04-27 18:08 | 42.76600 | 19.99026 | 39166 ft | 459 kts | 129° |
| 2026-04-27 18:09 | 42.72512 | 20.05797 | 39164 ft | 467 kts | 129° |
| 2026-04-27 18:09 | 42.68360 | 20.12655 | 39166 ft | 474 kts | 129° |
| 2026-04-27 18:10 | 42.64132 | 20.19622 | 39163 ft | 479 kts | 129° |
| 2026-04-27 18:10 | 42.59869 | 20.26632 | 39156 ft | 484 kts | 129° |
| 2026-04-27 18:11 | 42.55552 | 20.33714 | 39142 ft | 489 kts | 129° |
| 2026-04-27 18:11 | 42.51187 | 20.40856 | 39136 ft | 494 kts | 129° |
| 2026-04-27 18:12 | 42.46783 | 20.48045 | 39134 ft | 499 kts | 129° |
| 2026-04-27 18:12 | 42.42300 | 20.55345 | 39139 ft | 503 kts | 129° |
| 2026-04-27 18:13 | 42.37820 | 20.62623 | 39138 ft | 506 kts | 129° |
| 2026-04-27 18:13 | 42.33484 | 20.69651 | 39139 ft | 507 kts | 130° |
| 2026-04-27 18:14 | 42.28881 | 20.77091 | 39133 ft | 507 kts | 130° |
| 2026-04-27 18:14 | 42.24351 | 20.84398 | 39144 ft | 506 kts | 130° |
| 2026-04-27 18:15 | 42.19831 | 20.91669 | 39149 ft | 506 kts | 130° |
| 2026-04-27 18:15 | 42.15308 | 20.98928 | 39148 ft | 506 kts | 130° |
| 2026-04-27 18:16 | 42.11163 | 21.06585 | 39148 ft | 507 kts | 119° |
| 2026-04-27 18:16 | 42.08260 | 21.15265 | 39143 ft | 507 kts | 112° |
| 2026-04-27 18:17 | 42.05547 | 21.24055 | 39140 ft | 508 kts | 112° |
| 2026-04-27 18:17 | 42.02816 | 21.32885 | 39132 ft | 508 kts | 112° |
| 2026-04-27 18:18 | 42.00089 | 21.41681 | 39127 ft | 507 kts | 112° |
| 2026-04-27 18:18 | 41.97380 | 21.50399 | 39127 ft | 507 kts | 112° |
| 2026-04-27 18:19 | 41.94606 | 21.59215 | 39127 ft | 508 kts | 114° |
| 2026-04-27 18:19 | 41.90998 | 21.67209 | 39129 ft | 507 kts | 128° |
| 2026-04-27 18:20 | 41.86582 | 21.74564 | 39123 ft | 508 kts | 130° |
| 2026-04-27 18:20 | 41.82151 | 21.81902 | 39122 ft | 508 kts | 130° |
| 2026-04-27 18:21 | 41.77682 | 21.89293 | 39127 ft | 508 kts | 130° |
| 2026-04-27 18:21 | 41.73225 | 21.96648 | 39132 ft | 508 kts | 130° |
| 2026-04-27 18:22 | 41.68751 | 22.04020 | 39137 ft | 508 kts | 130° |
| 2026-04-27 18:22 | 41.64290 | 22.11355 | 39148 ft | 508 kts | 130° |
| 2026-04-27 18:23 | 41.59811 | 22.18702 | 39149 ft | 508 kts | 130° |
| 2026-04-27 18:23 | 41.55296 | 22.26093 | 39147 ft | 508 kts | 130° |
| 2026-04-27 18:24 | 41.55081 | 22.26445 | 39145 ft | 508 kts | 130° |
| 2026-04-27 18:32 | 41.51891 | 22.31659 | 39149 ft | 508 kts | 130° |
| 2026-04-27 18:33 | 41.47409 | 22.38991 | 39154 ft | 508 kts | 130° |
| 2026-04-27 18:33 | 41.42928 | 22.46283 | 39164 ft | 507 kts | 130° |
| 2026-04-27 18:34 | 41.38425 | 22.53583 | 39167 ft | 507 kts | 130° |
| 2026-04-27 18:34 | 41.33955 | 22.60814 | 39160 ft | 507 kts | 130° |
| 2026-04-27 18:35 | 41.29459 | 22.68071 | 39162 ft | 507 kts | 130° |
| 2026-04-27 18:35 | 41.24977 | 22.75291 | 39171 ft | 508 kts | 130° |
| 2026-04-27 18:36 | 41.20397 | 22.82520 | 39180 ft | 508 kts | 131° |
| 2026-04-27 18:36 | 41.15798 | 22.89740 | 39193 ft | 507 kts | 131° |
| 2026-04-27 18:37 | 41.11204 | 22.96925 | 39191 ft | 507 kts | 132° |
| 2026-04-27 18:37 | 41.06061 | 23.03261 | 39177 ft | 504 kts | 142° |
| 2026-04-27 18:38 | 41.00568 | 23.09155 | 39182 ft | 504 kts | 142° |
| 2026-04-27 18:38 | 40.95097 | 23.15027 | 39182 ft | 505 kts | 142° |
| 2026-04-27 18:39 | 40.89591 | 23.20926 | 39179 ft | 505 kts | 142° |
| 2026-04-27 18:39 | 40.84214 | 23.26678 | 39180 ft | 504 kts | 142° |
| 2026-04-27 18:40 | 40.78731 | 23.32534 | 39183 ft | 504 kts | 142° |
| 2026-04-27 18:40 | 40.73214 | 23.38414 | 39171 ft | 503 kts | 142° |
| 2026-04-27 18:41 | 40.67746 | 23.44232 | 39169 ft | 503 kts | 142° |
| 2026-04-27 18:41 | 40.62282 | 23.50033 | 39167 ft | 503 kts | 142° |
| 2026-04-27 18:42 | 40.57729 | 23.54858 | 39171 ft | 503 kts | 142° |
| 2026-04-27 18:42 | 40.51315 | 23.61642 | 39161 ft | 503 kts | 142° |
| 2026-04-27 18:43 | 40.45878 | 23.67379 | 39171 ft | 502 kts | 143° |
| 2026-04-27 18:43 | 40.40402 | 23.73144 | 39165 ft | 502 kts | 143° |
| 2026-04-27 18:44 | 40.34958 | 23.78865 | 39173 ft | 502 kts | 143° |
| 2026-04-27 18:44 | 40.29501 | 23.84587 | 39180 ft | 502 kts | 143° |
| 2026-04-27 18:45 | 40.24006 | 23.90337 | 39177 ft | 502 kts | 143° |
| 2026-04-27 18:45 | 40.18523 | 23.96062 | 39178 ft | 502 kts | 143° |
| 2026-04-27 18:46 | 40.13037 | 24.01778 | 39177 ft | 502 kts | 143° |
| 2026-04-27 18:46 | 40.07576 | 24.07456 | 39177 ft | 502 kts | 143° |
| 2026-04-27 18:47 | 40.02108 | 24.13129 | 39182 ft | 501 kts | 143° |
| 2026-04-27 18:47 | 39.96670 | 24.18759 | 39155 ft | 501 kts | 143° |
| 2026-04-27 18:48 | 39.91201 | 24.24410 | 39163 ft | 500 kts | 143° |
| 2026-04-27 18:48 | 39.85812 | 24.29966 | 39166 ft | 499 kts | 143° |
| 2026-04-27 18:49 | 39.80381 | 24.35554 | 39170 ft | 499 kts | 143° |
| 2026-04-27 18:49 | 39.74903 | 24.41179 | 39163 ft | 499 kts | 143° |
| 2026-04-27 18:50 | 39.69465 | 24.46751 | 39168 ft | 498 kts | 143° |
| 2026-04-27 18:50 | 39.64028 | 24.52310 | 39014 ft | 501 kts | 143° |
| 2026-04-27 18:51 | 39.61290 | 24.55105 | 38386 ft | 501 kts | 143° |
| 2026-04-27 18:51 | 39.58551 | 24.57900 | 37761 ft | 494 kts | 143° |
| 2026-04-27 18:51 | 39.55889 | 24.60613 | 37173 ft | 491 kts | 143° |
| 2026-04-27 18:51 | 39.53169 | 24.63382 | 36569 ft | 490 kts | 143° |
| 2026-04-27 18:52 | 39.50533 | 24.66061 | 35986 ft | 491 kts | 144° |
| 2026-04-27 18:52 | 39.47825 | 24.68810 | 35288 ft | 491 kts | 143° |
| 2026-04-27 18:52 | 39.45155 | 24.71518 | 34651 ft | 491 kts | 143° |
| 2026-04-27 18:53 | 39.39781 | 24.76957 | 33336 ft | 492 kts | 143° |
| 2026-04-27 18:53 | 39.37099 | 24.79669 | 32688 ft | 490 kts | 143° |
| 2026-04-27 18:53 | 39.34438 | 24.82356 | 32039 ft | 486 kts | 143° |
| 2026-04-27 18:53 | 39.31786 | 24.85032 | 31393 ft | 481 kts | 143° |
| 2026-04-27 18:54 | 39.29180 | 24.87660 | 30761 ft | 475 kts | 143° |
| 2026-04-27 18:54 | 39.26599 | 24.90259 | 30124 ft | 471 kts | 143° |
| 2026-04-27 18:54 | 39.24005 | 24.92869 | 29513 ft | 466 kts | 143° |
| 2026-04-27 18:54 | 39.21471 | 24.95416 | 28879 ft | 462 kts | 143° |
| 2026-04-27 18:55 | 39.18958 | 24.97940 | 28275 ft | 458 kts | 143° |
| 2026-04-27 18:55 | 39.16471 | 25.00438 | 27668 ft | 454 kts | 143° |
| 2026-04-27 18:55 | 39.13991 | 25.02925 | 27068 ft | 450 kts | 143° |
| 2026-04-27 18:55 | 39.11515 | 25.05406 | 26478 ft | 446 kts | 143° |
| 2026-04-27 18:56 | 39.09079 | 25.07845 | 25873 ft | 442 kts | 143° |
| 2026-04-27 18:56 | 39.06673 | 25.10251 | 25309 ft | 437 kts | 143° |
| 2026-04-27 18:56 | 39.04281 | 25.12642 | 24709 ft | 435 kts | 143° |
| 2026-04-27 18:56 | 39.01911 | 25.15008 | 24142 ft | 431 kts | 143° |
| 2026-04-27 18:57 | 38.99560 | 25.17354 | 23571 ft | 427 kts | 143° |
| 2026-04-27 18:57 | 38.97205 | 25.19702 | 22999 ft | 424 kts | 143° |
| 2026-04-27 18:57 | 38.94890 | 25.22006 | 22436 ft | 420 kts | 143° |
| 2026-04-27 18:57 | 38.92589 | 25.24296 | 21884 ft | 416 kts | 143° |
| 2026-04-27 18:58 | 38.90309 | 25.26563 | 21324 ft | 412 kts | 143° |
| 2026-04-27 18:58 | 38.88063 | 25.28795 | 20792 ft | 408 kts | 143° |
| 2026-04-27 18:58 | 38.85809 | 25.31032 | 20242 ft | 404 kts | 143° |
| 2026-04-27 18:58 | 38.83618 | 25.33205 | 19715 ft | 401 kts | 143° |
| 2026-04-27 18:59 | 38.81396 | 25.35406 | 19170 ft | 397 kts | 143° |
| 2026-04-27 18:59 | 38.79229 | 25.37552 | 18654 ft | 393 kts | 143° |
| 2026-04-27 18:59 | 38.77069 | 25.39689 | 18130 ft | 390 kts | 143° |
| 2026-04-27 18:59 | 38.74941 | 25.41793 | 17611 ft | 387 kts | 143° |
| 2026-04-27 19:00 | 38.72821 | 25.43886 | 17048 ft | 386 kts | 143° |
| 2026-04-27 19:00 | 38.70701 | 25.45979 | 16555 ft | 380 kts | 143° |
| 2026-04-27 19:00 | 38.68615 | 25.48036 | 16052 ft | 378 kts | 143° |
| 2026-04-27 19:00 | 38.66509 | 25.50112 | 15544 ft | 376 kts | 143° |
| 2026-04-27 19:01 | 38.64459 | 25.52130 | 15048 ft | 373 kts | 142° |
| 2026-04-27 19:01 | 38.62419 | 25.54137 | 14548 ft | 370 kts | 142° |
| 2026-04-27 19:01 | 38.60370 | 25.56153 | 14058 ft | 368 kts | 142° |
| 2026-04-27 19:01 | 38.58345 | 25.58142 | 13574 ft | 365 kts | 142° |
| 2026-04-27 19:02 | 38.56329 | 25.60121 | 13089 ft | 360 kts | 142° |
| 2026-04-27 19:02 | 38.54378 | 25.62035 | 12609 ft | 353 kts | 142° |
| 2026-04-27 19:02 | 38.52437 | 25.63938 | 12118 ft | 347 kts | 142° |
| 2026-04-27 19:02 | 38.50548 | 25.65789 | 11620 ft | 341 kts | 142° |
| 2026-04-27 19:03 | 38.48673 | 25.67624 | 11025 ft | 331 kts | 142° |
| 2026-04-27 19:03 | 38.46870 | 25.69388 | 10436 ft | 324 kts | 142° |
| 2026-04-27 19:03 | 38.45109 | 25.71110 | 9844 ft | 318 kts | 141° |
| 2026-04-27 19:03 | 38.43947 | 25.72246 | 9487 ft | 313 kts | 141° |
| 2026-04-27 19:04 | 38.41692 | 25.74450 | 8928 ft | 301 kts | 141° |
| 2026-04-27 19:04 | 38.40066 | 25.76038 | 8551 ft | 290 kts | 141° |
| 2026-04-27 19:04 | 38.38470 | 25.77597 | 8207 ft | 286 kts | 141° |
| 2026-04-27 19:04 | 38.36892 | 25.79138 | 7784 ft | 285 kts | 141° |
| 2026-04-27 19:05 | 38.35326 | 25.80663 | 7413 ft | 283 kts | 141° |
| 2026-04-27 19:05 | 38.33756 | 25.82193 | 7026 ft | 280 kts | 140° |
| 2026-04-27 19:05 | 38.32227 | 25.83680 | 6665 ft | 277 kts | 140° |
| 2026-04-27 19:05 | 38.30698 | 25.85168 | 6266 ft | 274 kts | 140° |
| 2026-04-27 19:06 | 38.29182 | 25.86639 | 5908 ft | 264 kts | 140° |
| 2026-04-27 19:06 | 38.27748 | 25.88030 | 5579 ft | 256 kts | 140° |
| 2026-04-27 19:06 | 38.26346 | 25.89396 | 5247 ft | 251 kts | 138° |
| 2026-04-27 19:06 | 38.25219 | 25.91048 | 4921 ft | 246 kts | 112° |
| 2026-04-27 19:07 | 38.24730 | 25.93087 | 4572 ft | 239 kts | 97° |
| 2026-04-27 19:07 | 38.24403 | 25.95139 | 4246 ft | 237 kts | 97° |
| 2026-04-27 19:07 | 38.24059 | 25.97205 | 3941 ft | 235 kts | 97° |
| 2026-04-27 19:07 | 38.23718 | 25.99235 | 3628 ft | 234 kts | 97° |
| 2026-04-27 19:08 | 38.23378 | 26.01250 | 3298 ft | 233 kts | 97° |
| 2026-04-27 19:08 | 38.23038 | 26.03260 | 2956 ft | 227 kts | 97° |
| 2026-04-27 19:08 | 38.22712 | 26.05182 | 2711 ft | 219 kts | 97° |
| 2026-04-27 19:08 | 38.22395 | 26.07063 | 2444 ft | 218 kts | 97° |
| 2026-04-27 19:09 | 38.22081 | 26.08927 | 2133 ft | 217 kts | 97° |
| 2026-04-27 19:09 | 38.21762 | 26.10815 | 1839 ft | 216 kts | 97° |
| 2026-04-27 19:09 | 38.21448 | 26.12653 | 1706 ft | 206 kts | 98° |
| 2026-04-27 19:09 | 38.20853 | 26.14263 | 1702 ft | 199 kts | 130° |
| 2026-04-27 19:10 | 38.19836 | 26.15342 | 1731 ft | 183 kts | 140° |
| 2026-04-27 19:10 | 38.18695 | 26.15923 | 1696 ft | 180 kts | 178° |
| 2026-04-27 19:10 | 38.17569 | 26.15325 | 1683 ft | 177 kts | 230° |
| 2026-04-27 19:10 | 38.17197 | 26.14423 | 1694 ft | 170 kts | 262° |
| 2026-04-27 19:11 | 38.17232 | 26.12477 | 1720 ft | 162 kts | 296° |
| 2026-04-27 19:11 | 38.17944 | 26.11477 | 1701 ft | 150 kts | 338° |
| 2026-04-27 19:11 | 38.18948 | 26.11274 | 1719 ft | 147 kts | 0° |
| 2026-04-27 19:11 | 38.19996 | 26.11345 | 1723 ft | 148 kts | 6° |
| 2026-04-27 19:12 | 38.21003 | 26.11558 | 1711 ft | 148 kts | 12° |
| 2026-04-27 19:12 | 38.22037 | 26.11644 | 1704 ft | 149 kts | 358° |
| 2026-04-27 19:12 | 38.23077 | 26.11775 | 1705 ft | 147 kts | 13° |
| 2026-04-27 19:12 | 38.24000 | 26.12043 | 1696 ft | 128 kts | 11° |
| 2026-04-27 19:13 | 38.24877 | 26.12176 | 1594 ft | 125 kts | 6° |
| 2026-04-27 19:13 | 38.25730 | 26.12309 | 1498 ft | 123 kts | 6° |
| 2026-04-27 19:13 | 38.26586 | 26.12462 | 1390 ft | 123 kts | 11° |
| 2026-04-27 19:13 | 38.27440 | 26.12638 | 1243 ft | 124 kts | 8° |
| 2026-04-27 19:14 | 38.28295 | 26.12782 | 1052 ft | 123 kts | 8° |
| 2026-04-27 19:14 | 38.29148 | 26.12977 | 899 ft | 124 kts | 11° |
| 2026-04-27 19:14 | 38.30004 | 26.13151 | 750 ft | 124 kts | 8° |
| 2026-04-27 19:14 | 38.30867 | 26.13331 | 599 ft | 126 kts | 10° |
| 2026-04-27 19:15 | 38.31739 | 26.13511 | 434 ft | 126 kts | 8° |
| 2026-04-27 19:15 | 38.32628 | 26.13680 | 297 ft | 127 kts | 9° |
| 2026-04-27 19:15 | 38.33501 | 26.13872 | 97 ft | 129 kts | 9° |
| 2026-04-27 19:15 | 38.34344 | 26.14053 | 36 ft | 106 kts | 10° |
| 2026-04-27 19:16 | 38.34867 | 26.14166 | 34 ft | 38 kts | 10° |
| 2026-04-27 19:16 | 38.34934 | 26.14174 | 31 ft | 8 kts | 354° |
| 2026-04-27 19:16 | 38.34932 | 26.14186 | 31 ft | 6 kts | 189° |
| 2026-04-27 19:16 | 38.34827 | 26.14163 | 35 ft | 20 kts | 190° |
| 2026-04-27 19:17 | 38.34681 | 26.14130 | 38 ft | 22 kts | 190° |
| 2026-04-27 19:17 | 38.34526 | 26.14152 | 37 ft | 24 kts | 142° |
| 2026-04-27 19:17 | 38.34460 | 26.14218 | 35 ft | 0 kts | 129° |